< Typhoon 200408 2004 Season Typhoon 200410 >
Typhoon 200409 (KOMPASU)
General InformationTrack Information on Google MapsDetailed Wind InformationAccess Analytics MapList of All Images || NewsDisaster Info.WeblogTrackbackTyphoon FrontResourceGoogle EarthGE AnimationAtom FeedGeoJSON
Detalied Best Track (Time Zone = UTC)
Year Month Day Hour Lat. Long. Pressure (hPa) Wind (kt) Class Image Chart
2004 7 11 06 19.1 136.3 1008 0 2 Image Chart
2004 7 11 12 19.0 135.5 1008 0 2 Image Chart
2004 7 11 18 19.6 134.4 1008 0 2 Image Chart
2004 7 12 00 20.0 133.5 1008 0 2 Image Chart
2004 7 12 06 20.2 132.4 1008 0 2 Image Chart
2004 7 12 12 20.5 131.1 1008 0 2 Image Chart
2004 7 12 18 20.7 130.4 1008 0 2 Image Chart
2004 7 13 00 20.9 130.0 1008 0 2 Image Chart
2004 7 13 06 21.0 129.5 1006 0 2 Image Chart
2004 7 13 12 20.7 127.4 1004 0 2 Image Chart
2004 7 13 18 20.5 125.4 1000 0 2 Image Chart
2004 7 14 00 20.9 124.3 998 35 3 Image Chart
2004 7 14 06 21.0 122.8 996 40 3 Image Chart
2004 7 14 12 20.4 121.6 992 45 3 Image Chart
2004 7 14 18 20.0 120.2 992 45 3 Image Chart
2004 7 15 00 20.0 119.0 992 45 3 Image Chart
2004 7 15 06 20.3 118.2 992 45 3 Image Chart
2004 7 15 12 20.8 117.2 992 45 3 Image Chart
2004 7 15 18 21.1 116.0 992 45 3 Image Chart
2004 7 16 00 21.3 115.2 992 45 3 Image Chart
2004 7 16 06 22.0 114.5 996 45 3 Image Chart
2004 7 16 12 23.0 114.0 1004 0 2 Image Chart
Japan Meteorological Agency Best Track Data | Correction Date : 2006-01-18
< Typhoon 200408 2004 Season Typhoon 200410 >

Help